createdAt,value
2023-02-21T00:02:29.471Z,19.90
2023-02-21T00:05:30.146Z,20.23
2023-02-21T00:08:31.881Z,18.37
2023-02-21T00:11:32.695Z,14.13
2023-02-21T00:14:33.233Z,16.73
2023-02-21T00:17:33.440Z,16.37
2023-02-21T00:20:34.488Z,16.50
2023-02-21T00:23:36.602Z,16.43
2023-02-21T00:26:37.277Z,16.27
2023-02-21T00:29:37.627Z,17.97
2023-02-21T00:32:38.542Z,18.57
2023-02-21T00:35:39.003Z,19.37
2023-02-21T00:38:41.883Z,19.23
2023-02-21T00:41:42.705Z,15.07
2023-02-21T00:44:43.148Z,14.70
2023-02-21T00:47:45.108Z,15.80
2023-02-21T00:50:45.929Z,16.37
2023-02-21T00:53:48.214Z,16.03
2023-02-21T00:56:48.824Z,14.43
2023-02-21T00:59:49.230Z,15.37
2023-02-21T01:02:50.089Z,13.80
2023-02-21T01:05:50.863Z,12.97
2023-02-21T01:08:52.574Z,13.90
2023-02-21T01:11:53.284Z,13.40
2023-02-21T01:14:53.550Z,14.83
2023-02-21T01:17:54.241Z,15.20
2023-02-21T01:20:54.859Z,13.63
2023-02-21T01:23:57.044Z,15.30
2023-02-21T01:26:57.917Z,15.70
2023-02-21T01:29:58.118Z,14.70
2023-02-21T01:32:58.754Z,14.73
2023-02-21T01:35:59.620Z,13.93
2023-02-21T01:39:01.693Z,13.73
2023-02-21T01:42:02.393Z,15.23
2023-02-21T01:45:07.079Z,13.47
2023-02-21T01:48:08.043Z,12.40
2023-02-21T01:51:08.512Z,11.93
2023-02-21T01:54:11.454Z,11.40
2023-02-21T01:57:13.420Z,11.73
2023-02-21T02:00:16.517Z,11.70
2023-02-21T02:03:19.548Z,10.20
2023-02-21T02:06:22.585Z,11.60
2023-02-21T02:09:35.068Z,12.67
2023-02-21T02:12:33.550Z,11.00
2023-02-21T02:15:29.287Z,11.50
2023-02-21T02:18:34.570Z,12.30
2023-02-21T02:22:00.800Z,11.93
2023-02-21T02:25:01.774Z,11.03
2023-02-21T02:28:15.884Z,10.20
2023-02-21T02:31:37.584Z,11.37
2023-02-21T02:34:43.486Z,10.63
2023-02-21T02:37:37.455Z,9.77
2023-02-21T02:40:29.488Z,9.80
2023-02-21T02:43:21.741Z,10.57
2023-02-21T02:46:09.962Z,10.47
2023-02-21T02:48:59.396Z,11.37
2023-02-21T02:51:44.435Z,9.83
2023-02-21T02:54:27.847Z,10.93
2023-02-21T02:57:13.535Z,10.10
2023-02-21T02:59:59.009Z,10.10
2023-02-21T03:02:54.395Z,10.47
2023-02-21T03:05:59.103Z,10.07
2023-02-21T03:08:53.422Z,9.30
2023-02-21T03:11:42.373Z,8.87
2023-02-21T03:14:36.316Z,9.47
2023-02-21T03:17:25.022Z,9.00
2023-02-21T03:20:11.165Z,9.43
2023-02-21T03:22:57.191Z,9.30
2023-02-21T03:25:43.515Z,9.73
2023-02-21T03:28:27.492Z,9.07
2023-02-21T03:31:15.667Z,9.53
2023-02-21T03:33:59.104Z,9.90
2023-02-21T03:36:42.886Z,9.57
2023-02-21T03:39:26.036Z,9.83
2023-02-21T03:42:10.478Z,14.03
2023-02-21T03:44:53.584Z,12.20
2023-02-21T03:47:36.846Z,12.30
2023-02-21T03:50:20.436Z,11.80
2023-02-21T03:53:03.478Z,13.07
2023-02-21T03:55:46.879Z,13.10
2023-02-21T03:58:31.433Z,13.47
2023-02-21T04:01:14.705Z,13.17
2023-02-21T04:03:58.093Z,13.93
2023-02-21T04:06:41.520Z,14.87
2023-02-21T04:09:26.628Z,14.00
2023-02-21T04:12:10.597Z,12.13
2023-02-21T04:14:59.186Z,13.10
2023-02-21T04:17:42.341Z,11.10
2023-02-21T04:20:25.406Z,12.30
2023-02-21T04:23:09.530Z,12.50
2023-02-21T04:25:53.973Z,12.00
2023-02-21T04:28:39.492Z,13.00
2023-02-21T04:31:24.349Z,12.07
2023-02-21T04:34:12.271Z,12.07
2023-02-21T04:36:56.020Z,11.93
2023-02-21T04:39:39.235Z,11.80
2023-02-21T04:42:22.954Z,12.90
2023-02-21T04:45:06.609Z,12.53
2023-02-21T04:47:51.111Z,12.93
2023-02-21T04:50:34.565Z,12.97
2023-02-21T04:53:17.704Z,12.77
2023-02-21T04:56:00.946Z,13.13
2023-02-21T04:58:45.617Z,12.30
2023-02-21T05:01:31.454Z,12.73
2023-02-21T05:04:16.153Z,12.33
2023-02-21T05:07:00.429Z,13.13
2023-02-21T05:09:43.459Z,14.40
2023-02-21T05:12:26.554Z,14.40
2023-02-21T05:15:11.515Z,16.10
2023-02-21T05:17:54.595Z,18.63
2023-02-21T05:20:39.052Z,15.97
2023-02-21T05:23:33.996Z,14.50
2023-02-21T05:26:17.093Z,14.10
2023-02-21T05:29:00.218Z,14.73
2023-02-21T05:31:43.454Z,13.30
2023-02-21T05:34:26.647Z,14.53
2023-02-21T05:37:11.404Z,16.50
2023-02-21T05:39:54.747Z,17.10
2023-02-21T05:42:37.911Z,15.73
2023-02-21T05:45:21.167Z,16.73
2023-02-21T05:48:04.436Z,17.90
2023-02-21T05:50:47.468Z,18.87
2023-02-21T05:53:32.052Z,16.23
2023-02-21T05:56:15.911Z,14.63
2023-02-21T05:58:59.038Z,15.03
2023-02-21T06:01:42.172Z,17.17
2023-02-21T06:04:25.640Z,19.33
2023-02-21T06:07:08.926Z,18.53
2023-02-21T06:09:53.551Z,19.57
2023-02-21T06:12:36.650Z,19.03
2023-02-21T06:15:21.119Z,19.13
2023-02-21T06:18:04.330Z,18.67
2023-02-21T06:20:47.658Z,18.77
2023-02-21T06:23:30.761Z,18.80
2023-02-21T06:26:16.293Z,21.30
2023-02-21T06:28:59.484Z,22.30
2023-02-21T06:31:42.702Z,22.67
2023-02-21T06:34:26.301Z,16.50
2023-02-21T06:37:09.397Z,12.97
2023-02-21T06:39:52.496Z,14.90
2023-02-21T06:42:37.830Z,11.43
2023-02-21T06:45:21.125Z,12.47
2023-02-21T06:48:04.214Z,12.27
2023-02-21T06:50:47.254Z,11.03
2023-02-21T06:53:30.477Z,10.30
2023-02-21T06:56:13.542Z,9.90
2023-02-21T06:58:58.338Z,9.67
2023-02-21T07:01:41.474Z,9.30
2023-02-21T07:04:25.327Z,9.90
2023-02-21T07:07:08.483Z,9.40
2023-02-21T07:09:51.696Z,9.60
2023-02-21T07:12:34.879Z,9.00
2023-02-21T07:15:19.458Z,9.60
2023-02-21T07:18:02.493Z,9.07
2023-02-21T07:20:45.497Z,9.13
2023-02-21T07:23:28.597Z,8.67
2023-02-21T07:26:12.243Z,9.40
2023-02-21T07:28:55.391Z,8.97
2023-02-21T07:31:39.986Z,9.53
2023-02-21T07:34:23.570Z,9.67
2023-02-21T07:37:06.673Z,10.17
2023-02-21T07:39:49.705Z,10.33
2023-02-21T07:42:32.854Z,10.23
2023-02-21T07:45:17.300Z,10.80
2023-02-21T07:48:01.795Z,11.23
2023-02-21T07:50:46.021Z,11.67
2023-02-21T07:53:29.232Z,11.23
2023-02-21T07:56:15.221Z,10.73
2023-02-21T07:58:58.274Z,10.93
2023-02-21T08:01:41.440Z,10.50
2023-02-21T08:04:26.090Z,10.90
2023-02-21T08:07:10.667Z,11.37
2023-02-21T08:09:53.827Z,11.93
2023-02-21T08:12:36.911Z,11.90
2023-02-21T08:15:20.469Z,11.90
2023-02-21T08:18:03.574Z,11.10
2023-02-21T08:20:48.605Z,12.60
2023-02-21T08:23:31.726Z,11.83
2023-02-21T08:26:14.742Z,11.00
2023-02-21T08:28:57.904Z,10.63
2023-02-21T08:31:42.236Z,10.83
2023-02-21T08:34:25.968Z,10.80
2023-02-21T08:37:17.595Z,11.13
2023-02-21T08:40:01.241Z,10.73
2023-02-21T08:42:44.328Z,10.33
2023-02-21T08:45:28.909Z,10.20
2023-02-21T08:48:12.518Z,10.67
2023-02-21T08:50:55.668Z,10.23
2023-02-21T08:53:40.145Z,10.93
2023-02-21T08:56:24.462Z,10.40
2023-02-21T08:59:09.597Z,10.23
2023-02-21T09:01:52.806Z,10.17
2023-02-21T09:04:37.166Z,10.33
2023-02-21T09:07:21.751Z,9.97
2023-02-21T09:10:09.916Z,9.13
2023-02-21T09:12:53.034Z,9.03
2023-02-21T09:15:36.321Z,8.07
2023-02-21T09:18:19.390Z,8.63
2023-02-21T09:21:02.556Z,8.57
2023-02-21T09:23:45.778Z,7.80
2023-02-21T09:26:33.013Z,8.67
2023-02-21T09:29:16.772Z,8.63
2023-02-21T09:31:59.998Z,8.87
2023-02-21T09:34:43.083Z,8.27
2023-02-21T09:37:26.131Z,7.90
2023-02-21T09:40:16.971Z,7.57
2023-02-21T09:43:03.514Z,7.53
2023-02-21T09:45:47.661Z,7.57
2023-02-21T09:48:32.481Z,7.60
2023-02-21T09:51:16.729Z,7.37
2023-02-21T09:54:01.744Z,7.23
2023-02-21T09:56:46.267Z,8.17
2023-02-21T09:59:33.433Z,7.37
2023-02-21T10:02:34.474Z,8.00
2023-02-21T10:05:30.541Z,7.47
2023-02-21T10:08:24.391Z,9.00
2023-02-21T10:11:23.822Z,9.17
2023-02-21T10:14:19.026Z,7.90
2023-02-21T10:17:13.099Z,7.87
2023-02-21T10:20:01.735Z,7.60
2023-02-21T10:22:48.174Z,8.70
2023-02-21T10:25:33.725Z,8.20
2023-02-21T10:28:20.404Z,7.40
2023-02-21T10:31:09.832Z,7.43
2023-02-21T10:33:54.338Z,7.97
2023-02-21T10:36:40.202Z,7.70
2023-02-21T10:39:32.174Z,8.13
2023-02-21T10:42:27.723Z,7.90
2023-02-21T10:45:14.109Z,8.03
2023-02-21T10:48:02.982Z,7.77
2023-02-21T10:50:53.519Z,7.00
2023-02-21T10:53:38.725Z,7.30
2023-02-21T10:56:25.367Z,6.93
2023-02-21T10:59:08.802Z,6.93
2023-02-21T11:01:53.550Z,6.90
2023-02-21T11:04:38.745Z,6.70
2023-02-21T11:07:24.616Z,6.93
2023-02-21T11:10:28.520Z,6.45
2023-02-21T11:13:19.590Z,8.30
2023-02-21T11:16:13.107Z,6.00
2023-02-21T11:19:09.053Z,5.72
2023-02-21T11:21:57.772Z,6.05
2023-02-21T11:25:02.001Z,6.38
2023-02-21T11:27:46.538Z,5.00
2023-02-21T11:30:31.546Z,4.40
2023-02-21T11:33:22.048Z,3.95
2023-02-21T11:36:14.104Z,3.75
2023-02-21T11:39:16.920Z,3.50
2023-02-21T11:42:04.496Z,3.90
2023-02-21T11:44:49.362Z,4.10
2023-02-21T11:47:39.443Z,3.67
2023-02-21T11:50:27.138Z,4.30
2023-02-21T11:53:22.615Z,3.90
2023-02-21T11:56:16.362Z,3.97
2023-02-21T11:59:06.852Z,4.67
2023-02-21T12:02:01.718Z,3.97
2023-02-21T12:04:57.708Z,4.70
2023-02-21T12:07:47.168Z,4.83
2023-02-21T12:10:42.342Z,6.40
2023-02-21T12:13:34.430Z,5.83
2023-02-21T12:16:28.506Z,6.10
2023-02-21T12:19:28.881Z,6.33
2023-02-21T12:22:23.956Z,6.00
2023-02-21T12:25:17.762Z,6.13
2023-02-21T12:28:11.855Z,6.53
2023-02-21T12:31:13.495Z,6.47
2023-02-21T12:34:16.954Z,6.57
2023-02-21T12:37:11.895Z,6.47
2023-02-21T12:40:10.463Z,7.17
2023-02-21T12:43:30.130Z,6.53
2023-02-21T12:46:24.092Z,6.70
2023-02-21T12:49:15.760Z,6.67
2023-02-21T12:52:03.980Z,6.83
2023-02-21T12:54:56.846Z,5.97
2023-02-21T12:57:48.856Z,7.27
2023-02-21T13:00:39.026Z,7.17
2023-02-21T13:03:38.113Z,6.80
2023-02-21T13:06:31.522Z,6.73
2023-02-21T13:09:23.335Z,7.00
2023-02-21T13:12:11.267Z,7.00
2023-02-21T13:14:58.690Z,7.10
2023-02-21T13:17:43.053Z,7.00
2023-02-21T13:20:32.363Z,7.43
2023-02-21T13:24:07.972Z,6.40
2023-02-21T13:27:02.292Z,6.63
2023-02-21T13:29:46.044Z,5.90
2023-02-21T13:32:29.585Z,7.10
2023-02-21T13:35:20.318Z,6.20
2023-02-21T13:38:08.329Z,5.80
2023-02-21T13:40:55.364Z,6.20
2023-02-21T13:43:48.630Z,7.00
2023-02-21T13:47:17.490Z,6.80
2023-02-21T13:50:01.059Z,6.90
2023-02-21T13:53:14.070Z,7.20
2023-02-21T13:56:43.953Z,6.83
2023-02-21T13:59:38.327Z,6.77
2023-02-21T14:02:31.237Z,6.53
2023-02-21T14:05:14.508Z,7.53
2023-02-21T14:08:02.592Z,6.33
2023-02-21T14:10:51.176Z,6.87
2023-02-21T14:13:37.534Z,6.33
2023-02-21T14:16:26.618Z,7.17
2023-02-21T14:19:12.297Z,7.50
2023-02-21T14:22:04.043Z,6.77
2023-02-21T14:24:49.857Z,6.00
2023-02-21T14:27:37.286Z,6.77
2023-02-21T14:30:33.893Z,5.80
2023-02-21T14:33:27.487Z,7.90
2023-02-21T14:36:15.128Z,6.73
2023-02-21T14:38:59.329Z,7.60
2023-02-21T14:41:56.734Z,7.30
2023-02-21T14:44:56.930Z,8.43
2023-02-21T14:48:01.414Z,9.73
2023-02-21T14:51:07.403Z,9.13
2023-02-21T14:54:23.553Z,9.73
2023-02-21T14:57:28.754Z,8.93
2023-02-21T15:00:28.420Z,8.77
2023-02-21T15:03:17.500Z,8.83
2023-02-21T15:06:06.257Z,9.20
2023-02-21T15:08:51.043Z,9.10
2023-02-21T15:11:37.710Z,8.17
2023-02-21T15:14:27.258Z,9.03
2023-02-21T15:17:18.571Z,10.27
2023-02-21T15:20:10.490Z,8.63
2023-02-21T15:23:01.970Z,8.57
2023-02-21T15:25:46.618Z,9.37
2023-02-21T15:28:31.395Z,8.77
2023-02-21T15:31:16.678Z,8.27
2023-02-21T15:34:01.438Z,9.57
2023-02-21T15:36:45.497Z,8.93
2023-02-21T15:39:34.814Z,9.03
2023-02-21T15:42:19.973Z,11.07
2023-02-21T15:45:11.509Z,8.93
2023-02-21T15:47:55.743Z,8.73
2023-02-21T15:50:43.905Z,9.60
2023-02-21T15:53:27.107Z,8.83
2023-02-21T15:56:25.544Z,9.97
2023-02-21T15:59:15.186Z,9.10
2023-02-21T16:02:16.793Z,9.07
2023-02-21T16:04:59.950Z,9.10
2023-02-21T16:07:44.339Z,9.83
2023-02-21T16:10:28.555Z,10.23
2023-02-21T16:13:17.202Z,11.57
2023-02-21T16:16:02.179Z,18.07
2023-02-21T16:18:45.601Z,18.80
2023-02-21T16:21:31.108Z,16.43
2023-02-21T16:24:32.454Z,19.07
2023-02-21T16:27:20.958Z,18.63
2023-02-21T16:30:13.274Z,20.67
2023-02-21T16:33:01.338Z,20.33
2023-02-21T16:35:44.888Z,17.50
2023-02-21T16:38:30.304Z,19.20
2023-02-21T16:41:15.712Z,17.33
2023-02-21T16:43:59.274Z,14.13
2023-02-21T16:46:46.152Z,13.77
2023-02-21T16:49:29.633Z,11.07
2023-02-21T16:52:17.869Z,11.10
2023-02-21T16:55:01.113Z,15.37
2023-02-21T16:57:44.994Z,12.17
2023-02-21T17:00:30.502Z,12.60
2023-02-21T17:03:15.173Z,11.33
2023-02-21T17:06:00.383Z,14.57
2023-02-21T17:08:43.454Z,13.77
2023-02-21T17:11:26.670Z,13.93
2023-02-21T17:14:12.505Z,14.70
2023-02-21T17:16:58.506Z,15.60
2023-02-21T17:19:43.421Z,16.77
2023-02-21T17:22:26.533Z,17.03
2023-02-21T17:25:10.370Z,16.47
2023-02-21T17:27:53.384Z,14.90
2023-02-21T17:30:36.654Z,14.37
2023-02-21T17:33:19.836Z,13.87
2023-02-21T17:36:04.997Z,15.27
2023-02-21T17:38:48.048Z,14.80
2023-02-21T17:41:31.144Z,15.07
2023-02-21T17:44:14.718Z,13.57
2023-02-21T17:46:59.278Z,12.60
2023-02-21T17:49:42.568Z,13.37
2023-02-21T17:52:30.248Z,13.57
2023-02-21T17:55:20.545Z,14.90
2023-02-21T17:58:04.843Z,14.83
2023-02-21T18:00:50.175Z,12.83
2023-02-21T18:03:38.161Z,12.50
2023-02-21T18:06:23.173Z,13.40
2023-02-21T18:09:11.413Z,10.93
2023-02-21T18:11:56.897Z,11.37
2023-02-21T18:14:42.908Z,10.70
2023-02-21T18:17:27.256Z,10.00
2023-02-21T18:20:15.495Z,10.90
2023-02-21T18:22:58.937Z,11.07
2023-02-21T18:25:45.344Z,11.80
2023-02-21T18:28:29.315Z,11.60
2023-02-21T18:31:16.067Z,11.77
2023-02-21T18:33:59.948Z,13.13
2023-02-21T18:36:49.506Z,11.90
2023-02-21T18:39:33.556Z,12.27
2023-02-21T18:42:18.335Z,12.40
2023-02-21T18:45:01.488Z,11.80
2023-02-21T18:47:45.871Z,16.63
2023-02-21T18:50:28.993Z,15.73
2023-02-21T18:53:12.925Z,15.27
2023-02-21T18:55:57.500Z,13.10
2023-02-21T18:58:42.426Z,13.23
2023-02-21T19:01:27.258Z,13.40
2023-02-21T19:04:10.532Z,11.93
2023-02-21T19:06:57.194Z,12.40
2023-02-21T19:09:41.051Z,14.13
2023-02-21T19:12:24.644Z,17.67
2023-02-21T19:15:10.415Z,13.13
2023-02-21T19:17:53.515Z,14.20
2023-02-21T19:20:37.342Z,15.97
2023-02-21T19:23:20.578Z,17.90
2023-02-21T19:26:03.781Z,18.47
2023-02-21T19:28:47.809Z,16.03
2023-02-21T19:31:32.465Z,17.33
2023-02-21T19:34:15.979Z,16.80
2023-02-21T19:36:59.120Z,19.17
2023-02-21T19:39:42.273Z,13.97
2023-02-21T19:42:27.567Z,12.93
2023-02-21T19:45:10.983Z,13.43
2023-02-21T19:47:55.588Z,12.67
2023-02-21T19:50:38.981Z,12.40
2023-02-21T19:53:22.674Z,12.30
2023-02-21T19:56:06.467Z,13.07
2023-02-21T19:58:49.563Z,12.60
2023-02-21T20:01:34.187Z,11.67
2023-02-21T20:04:19.650Z,11.23
2023-02-21T20:07:03.135Z,10.20
2023-02-21T20:09:48.099Z,10.97
2023-02-21T20:12:32.683Z,11.97
2023-02-21T20:15:15.859Z,13.17
2023-02-21T20:18:00.864Z,11.87
2023-02-21T20:20:45.637Z,11.47
2023-02-21T20:23:28.901Z,12.10
2023-02-21T20:26:13.026Z,12.77
2023-02-21T20:28:57.241Z,10.83
2023-02-21T20:31:40.622Z,11.00
2023-02-21T20:34:24.952Z,11.83
2023-02-21T20:40:11.156Z,12.37
2023-02-21T20:42:54.535Z,12.50
2023-02-21T20:45:38.624Z,11.90
2023-02-21T20:48:28.262Z,11.87
2023-02-21T20:51:12.441Z,11.40
2023-02-21T20:53:55.883Z,12.37
2023-02-21T20:56:42.351Z,13.13
2023-02-21T20:59:27.875Z,12.10
2023-02-21T21:02:11.126Z,12.47
2023-02-21T21:04:55.031Z,12.83
2023-02-21T21:07:38.448Z,12.83
2023-02-21T21:10:21.882Z,12.87
2023-02-21T21:13:07.194Z,13.50
2023-02-21T21:15:50.435Z,12.73
2023-02-21T21:18:34.840Z,12.57
2023-02-21T21:21:18.833Z,13.07
2023-02-21T21:24:02.277Z,12.80
2023-02-21T21:26:51.364Z,13.50
2023-02-21T21:29:36.809Z,12.73
2023-02-21T21:32:22.604Z,12.67
2023-02-21T21:35:07.677Z,12.93
2023-02-21T21:37:51.114Z,11.47
2023-02-21T21:40:35.806Z,13.47
2023-02-21T21:43:19.163Z,12.20
2023-02-21T21:46:04.347Z,12.53
2023-02-21T21:48:49.059Z,11.50
2023-02-21T21:51:34.115Z,13.30
2023-02-21T21:54:20.765Z,13.43
2023-02-21T21:57:05.563Z,12.57
2023-02-21T21:59:51.147Z,11.63
2023-02-21T22:02:35.997Z,11.73
2023-02-21T22:05:21.194Z,19.50
2023-02-21T22:08:04.795Z,12.17
2023-02-21T22:10:48.436Z,14.67
2023-02-21T22:13:34.121Z,11.87
2023-02-21T22:16:18.197Z,11.77
2023-02-21T22:19:02.801Z,11.10
2023-02-21T22:21:46.755Z,11.20
2023-02-21T22:24:30.428Z,11.90
2023-02-21T22:27:14.995Z,11.50
2023-02-21T22:29:58.588Z,11.63
2023-02-21T22:32:42.845Z,11.87
2023-02-21T22:35:29.068Z,11.33
2023-02-21T22:38:14.605Z,14.23
2023-02-21T22:41:00.158Z,14.07
2023-02-21T22:43:43.272Z,19.13
2023-02-21T22:46:29.253Z,18.30
2023-02-21T22:49:16.875Z,18.63
2023-02-21T22:52:01.832Z,17.43
2023-02-21T22:54:44.962Z,19.50
2023-02-21T22:57:28.162Z,19.70
2023-02-21T23:00:19.729Z,18.90
2023-02-21T23:03:12.870Z,19.57
2023-02-21T23:06:02.076Z,19.17
2023-02-21T23:08:50.578Z,20.10
2023-02-21T23:11:34.075Z,19.50
2023-02-21T23:14:19.100Z,20.57
2023-02-21T23:17:02.664Z,20.07
2023-02-21T23:19:45.788Z,20.10
2023-02-21T23:22:29.024Z,21.67
2023-02-21T23:25:20.977Z,19.90
2023-02-21T23:28:08.824Z,22.23
2023-02-21T23:30:52.271Z,28.07
2023-02-21T23:33:35.368Z,28.17
2023-02-21T23:36:22.744Z,25.33
2023-02-21T23:39:09.361Z,26.20
2023-02-21T23:41:53.919Z,24.80
2023-02-21T23:44:37.197Z,22.93
2023-02-21T23:47:20.322Z,19.27
2023-02-21T23:50:07.492Z,19.47
2023-02-21T23:52:54.539Z,20.07
2023-02-21T23:55:37.591Z,19.37
2023-02-21T23:58:22.500Z,18.00
